sensor_id;sensor_type;location;lat;lon;timestamp;P1;durP1;ratioP1;P2;durP2;ratioP2
46651;SDS011;32377;52.182;5.398;2022-12-18T00:00:30;90.90;;;35.20;;
46651;SDS011;32377;52.182;5.398;2022-12-18T00:02:56;93.33;;;35.47;;
46651;SDS011;32377;52.182;5.398;2022-12-18T00:05:22;101.23;;;38.33;;
46651;SDS011;32377;52.182;5.398;2022-12-18T00:07:48;97.93;;;34.87;;
46651;SDS011;32377;52.182;5.398;2022-12-18T00:10:14;98.57;;;36.07;;
46651;SDS011;32377;52.182;5.398;2022-12-18T00:12:39;102.57;;;38.43;;
46651;SDS011;32377;52.182;5.398;2022-12-18T00:15:05;95.40;;;35.37;;
46651;SDS011;32377;52.182;5.398;2022-12-18T00:17:31;97.27;;;35.57;;
46651;SDS011;32377;52.182;5.398;2022-12-18T00:19:56;96.67;;;38.43;;
46651;SDS011;32377;52.182;5.398;2022-12-18T00:22:22;98.63;;;37.30;;
46651;SDS011;32377;52.182;5.398;2022-12-18T00:24:47;100.60;;;37.77;;
46651;SDS011;32377;52.182;5.398;2022-12-18T00:27:13;103.87;;;36.03;;
46651;SDS011;32377;52.182;5.398;2022-12-18T00:29:42;108.43;;;37.90;;
46651;SDS011;32377;52.182;5.398;2022-12-18T00:32:07;102.37;;;36.80;;
46651;SDS011;32377;52.182;5.398;2022-12-18T00:34:33;100.70;;;37.57;;
46651;SDS011;32377;52.182;5.398;2022-12-18T00:36:58;108.43;;;38.03;;
46651;SDS011;32377;52.182;5.398;2022-12-18T00:39:24;108.97;;;40.03;;
46651;SDS011;32377;52.182;5.398;2022-12-18T00:41:49;104.63;;;39.50;;
46651;SDS011;32377;52.182;5.398;2022-12-18T00:44:33;109.53;;;40.43;;
46651;SDS011;32377;52.182;5.398;2022-12-18T00:46:59;102.60;;;38.43;;
46651;SDS011;32377;52.182;5.398;2022-12-18T00:49:24;106.87;;;39.60;;
46651;SDS011;32377;52.182;5.398;2022-12-18T00:51:50;108.83;;;37.50;;
46651;SDS011;32377;52.182;5.398;2022-12-18T00:54:16;107.07;;;41.63;;
46651;SDS011;32377;52.182;5.398;2022-12-18T00:56:41;111.43;;;39.23;;
46651;SDS011;32377;52.182;5.398;2022-12-18T00:59:07;112.33;;;39.40;;
46651;SDS011;32377;52.182;5.398;2022-12-18T01:01:33;107.87;;;38.67;;
46651;SDS011;32377;52.182;5.398;2022-12-18T01:03:59;111.30;;;40.03;;
46651;SDS011;32377;52.182;5.398;2022-12-18T01:06:26;103.67;;;38.30;;
46651;SDS011;32377;52.182;5.398;2022-12-18T01:08:52;108.10;;;39.63;;
46651;SDS011;32377;52.182;5.398;2022-12-18T01:11:18;111.73;;;41.03;;
46651;SDS011;32377;52.182;5.398;2022-12-18T01:13:45;109.17;;;40.57;;
46651;SDS011;32377;52.182;5.398;2022-12-18T01:16:12;124.63;;;42.17;;
46651;SDS011;32377;52.182;5.398;2022-12-18T01:18:38;124.47;;;41.43;;
46651;SDS011;32377;52.182;5.398;2022-12-18T01:21:07;109.93;;;40.40;;
46651;SDS011;32377;52.182;5.398;2022-12-18T01:23:34;120.30;;;42.27;;
46651;SDS011;32377;52.182;5.398;2022-12-18T01:26:10;109.40;;;40.63;;
46651;SDS011;32377;52.182;5.398;2022-12-18T01:28:37;116.13;;;41.23;;
46651;SDS011;32377;52.182;5.398;2022-12-18T01:31:11;108.87;;;39.47;;
46651;SDS011;32377;52.182;5.398;2022-12-18T01:33:44;113.07;;;40.70;;
46651;SDS011;32377;52.182;5.398;2022-12-18T01:36:17;107.40;;;39.60;;
46651;SDS011;32377;52.182;5.398;2022-12-18T01:38:45;101.67;;;38.80;;
46651;SDS011;32377;52.182;5.398;2022-12-18T01:41:11;108.63;;;39.87;;
46651;SDS011;32377;52.182;5.398;2022-12-18T01:43:44;108.27;;;41.10;;
46651;SDS011;32377;52.182;5.398;2022-12-18T01:46:13;100.37;;;38.40;;
46651;SDS011;32377;52.182;5.398;2022-12-18T01:48:40;110.90;;;40.00;;
46651;SDS011;32377;52.182;5.398;2022-12-18T01:51:06;109.20;;;40.03;;
46651;SDS011;32377;52.182;5.398;2022-12-18T01:53:34;103.00;;;39.17;;
46651;SDS011;32377;52.182;5.398;2022-12-18T01:56:02;113.77;;;39.63;;
46651;SDS011;32377;52.182;5.398;2022-12-18T01:58:30;119.63;;;41.43;;
46651;SDS011;32377;52.182;5.398;2022-12-18T02:01:03;106.80;;;38.73;;
46651;SDS011;32377;52.182;5.398;2022-12-18T02:03:29;102.67;;;37.67;;
46651;SDS011;32377;52.182;5.398;2022-12-18T02:16:25;116.03;;;40.90;;
46651;SDS011;32377;52.182;5.398;2022-12-18T02:18:55;118.35;;;40.75;;
46651;SDS011;32377;52.182;5.398;2022-12-18T02:26:49;110.75;;;38.42;;
46651;SDS011;32377;52.182;5.398;2022-12-18T02:29:20;104.77;;;39.50;;
46651;SDS011;32377;52.182;5.398;2022-12-18T02:31:56;108.00;;;40.60;;
46651;SDS011;32377;52.182;5.398;2022-12-18T02:34:28;120.10;;;42.13;;
46651;SDS011;32377;52.182;5.398;2022-12-18T02:36:57;98.90;;;37.47;;
46651;SDS011;32377;52.182;5.398;2022-12-18T02:39:25;97.83;;;37.47;;
46651;SDS011;32377;52.182;5.398;2022-12-18T02:41:53;102.40;;;38.63;;
46651;SDS011;32377;52.182;5.398;2022-12-18T02:44:19;104.90;;;39.77;;
46651;SDS011;32377;52.182;5.398;2022-12-18T02:46:46;107.40;;;39.33;;
46651;SDS011;32377;52.182;5.398;2022-12-18T02:51:58;107.43;;;38.97;;
46651;SDS011;32377;52.182;5.398;2022-12-18T02:57:08;117.40;;;42.37;;
46651;SDS011;32377;52.182;5.398;2022-12-18T03:00:08;106.17;;;38.97;;
46651;SDS011;32377;52.182;5.398;2022-12-18T03:05:22;104.80;;;38.50;;
46651;SDS011;32377;52.182;5.398;2022-12-18T03:08:03;102.00;;;38.37;;
46651;SDS011;32377;52.182;5.398;2022-12-18T03:10:35;105.47;;;39.77;;
46651;SDS011;32377;52.182;5.398;2022-12-18T03:13:07;94.23;;;38.13;;
46651;SDS011;32377;52.182;5.398;2022-12-18T03:15:37;103.07;;;37.47;;
46651;SDS011;32377;52.182;5.398;2022-12-18T03:18:11;92.07;;;37.20;;
46651;SDS011;32377;52.182;5.398;2022-12-18T03:20:42;95.50;;;37.40;;
46651;SDS011;32377;52.182;5.398;2022-12-18T03:23:11;104.37;;;38.17;;
46651;SDS011;32377;52.182;5.398;2022-12-18T03:25:44;95.20;;;36.77;;
46651;SDS011;32377;52.182;5.398;2022-12-18T03:28:15;88.27;;;35.93;;
46651;SDS011;32377;52.182;5.398;2022-12-18T03:30:45;90.57;;;36.67;;
46651;SDS011;32377;52.182;5.398;2022-12-18T03:33:18;94.10;;;37.27;;
46651;SDS011;32377;52.182;5.398;2022-12-18T03:35:49;94.13;;;34.40;;
46651;SDS011;32377;52.182;5.398;2022-12-18T03:38:15;91.87;;;34.77;;
46651;SDS011;32377;52.182;5.398;2022-12-18T03:41:00;84.63;;;34.13;;
46651;SDS011;32377;52.182;5.398;2022-12-18T03:43:42;85.50;;;34.33;;
46651;SDS011;32377;52.182;5.398;2022-12-18T03:46:30;87.03;;;34.37;;
46651;SDS011;32377;52.182;5.398;2022-12-18T03:49:05;91.53;;;35.63;;
46651;SDS011;32377;52.182;5.398;2022-12-18T03:54:06;86.37;;;34.50;;
46651;SDS011;32377;52.182;5.398;2022-12-18T03:56:35;75.87;;;31.90;;
46651;SDS011;32377;52.182;5.398;2022-12-18T03:59:05;79.67;;;32.23;;
46651;SDS011;32377;52.182;5.398;2022-12-18T04:01:33;79.23;;;32.73;;
46651;SDS011;32377;52.182;5.398;2022-12-18T04:04:02;86.20;;;34.00;;
46651;SDS011;32377;52.182;5.398;2022-12-18T04:06:29;80.63;;;33.47;;
46651;SDS011;32377;52.182;5.398;2022-12-18T04:08:56;75.17;;;32.07;;
46651;SDS011;32377;52.182;5.398;2022-12-18T04:11:22;79.20;;;31.37;;
46651;SDS011;32377;52.182;5.398;2022-12-18T04:13:48;77.07;;;31.90;;
46651;SDS011;32377;52.182;5.398;2022-12-18T04:16:14;77.47;;;32.37;;
46651;SDS011;32377;52.182;5.398;2022-12-18T04:18:39;81.33;;;32.10;;
46651;SDS011;32377;52.182;5.398;2022-12-18T04:21:05;81.23;;;30.70;;
46651;SDS011;32377;52.182;5.398;2022-12-18T04:23:31;74.70;;;31.43;;
46651;SDS011;32377;52.182;5.398;2022-12-18T04:25:56;74.77;;;30.17;;
46651;SDS011;32377;52.182;5.398;2022-12-18T04:28:22;76.67;;;31.87;;
46651;SDS011;32377;52.182;5.398;2022-12-18T04:30:47;70.27;;;29.97;;
46651;SDS011;32377;52.182;5.398;2022-12-18T04:33:16;66.23;;;29.77;;
46651;SDS011;32377;52.182;5.398;2022-12-18T04:35:42;65.13;;;28.60;;
46651;SDS011;32377;52.182;5.398;2022-12-18T04:38:07;66.53;;;27.83;;
46651;SDS011;32377;52.182;5.398;2022-12-18T04:40:36;66.83;;;29.00;;
46651;SDS011;32377;52.182;5.398;2022-12-18T04:43:03;69.53;;;30.67;;
46651;SDS011;32377;52.182;5.398;2022-12-18T04:45:29;69.40;;;28.90;;
46651;SDS011;32377;52.182;5.398;2022-12-18T04:47:58;70.47;;;28.33;;
46651;SDS011;32377;52.182;5.398;2022-12-18T04:50:25;65.53;;;29.27;;
46651;SDS011;32377;52.182;5.398;2022-12-18T04:52:51;58.17;;;26.43;;
46651;SDS011;32377;52.182;5.398;2022-12-18T04:55:19;65.20;;;27.27;;
46651;SDS011;32377;52.182;5.398;2022-12-18T04:57:45;62.97;;;27.27;;
46651;SDS011;32377;52.182;5.398;2022-12-18T05:00:11;62.43;;;27.20;;
46651;SDS011;32377;52.182;5.398;2022-12-18T05:02:37;62.07;;;26.90;;
46651;SDS011;32377;52.182;5.398;2022-12-18T05:05:03;63.07;;;26.03;;
46651;SDS011;32377;52.182;5.398;2022-12-18T05:07:29;57.90;;;26.17;;
46651;SDS011;32377;52.182;5.398;2022-12-18T05:09:55;57.90;;;26.33;;
46651;SDS011;32377;52.182;5.398;2022-12-18T05:12:23;57.67;;;25.07;;
46651;SDS011;32377;52.182;5.398;2022-12-18T05:14:49;51.93;;;24.43;;
46651;SDS011;32377;52.182;5.398;2022-12-18T05:17:15;52.03;;;23.83;;
46651;SDS011;32377;52.182;5.398;2022-12-18T05:19:40;52.37;;;23.53;;
46651;SDS011;32377;52.182;5.398;2022-12-18T05:22:09;48.77;;;23.57;;
46651;SDS011;32377;52.182;5.398;2022-12-18T05:24:35;54.83;;;25.10;;
46651;SDS011;32377;52.182;5.398;2022-12-18T05:27:01;51.80;;;24.67;;
46651;SDS011;32377;52.182;5.398;2022-12-18T05:29:26;53.33;;;23.37;;
46651;SDS011;32377;52.182;5.398;2022-12-18T05:31:52;48.90;;;22.90;;
46651;SDS011;32377;52.182;5.398;2022-12-18T05:34:17;53.47;;;23.80;;
46651;SDS011;32377;52.182;5.398;2022-12-18T05:36:43;55.27;;;23.40;;
46651;SDS011;32377;52.182;5.398;2022-12-18T05:39:09;52.47;;;24.57;;
46651;SDS011;32377;52.182;5.398;2022-12-18T05:41:35;49.23;;;24.20;;
46651;SDS011;32377;52.182;5.398;2022-12-18T05:44:00;51.20;;;23.03;;
46651;SDS011;32377;52.182;5.398;2022-12-18T05:46:27;53.73;;;23.23;;
46651;SDS011;32377;52.182;5.398;2022-12-18T05:48:54;54.33;;;23.77;;
46651;SDS011;32377;52.182;5.398;2022-12-18T05:51:23;55.37;;;25.63;;
46651;SDS011;32377;52.182;5.398;2022-12-18T05:53:49;53.33;;;23.57;;
46651;SDS011;32377;52.182;5.398;2022-12-18T05:56:16;51.20;;;23.40;;
46651;SDS011;32377;52.182;5.398;2022-12-18T05:58:44;51.60;;;23.53;;
46651;SDS011;32377;52.182;5.398;2022-12-18T06:01:11;56.47;;;23.13;;
46651;SDS011;32377;52.182;5.398;2022-12-18T06:03:39;54.10;;;23.30;;
46651;SDS011;32377;52.182;5.398;2022-12-18T06:06:12;54.03;;;24.10;;
46651;SDS011;32377;52.182;5.398;2022-12-18T06:08:39;48.78;;;23.63;;
46651;SDS011;32377;52.182;5.398;2022-12-18T06:11:05;49.90;;;22.77;;
46651;SDS011;32377;52.182;5.398;2022-12-18T06:13:30;52.87;;;22.97;;
46651;SDS011;32377;52.182;5.398;2022-12-18T06:15:56;49.97;;;22.70;;
46651;SDS011;32377;52.182;5.398;2022-12-18T06:18:22;51.57;;;23.37;;
46651;SDS011;32377;52.182;5.398;2022-12-18T06:20:56;48.43;;;22.67;;
46651;SDS011;32377;52.182;5.398;2022-12-18T06:23:23;49.73;;;22.67;;
46651;SDS011;32377;52.182;5.398;2022-12-18T06:25:49;59.20;;;24.90;;
46651;SDS011;32377;52.182;5.398;2022-12-18T06:28:14;58.60;;;24.67;;
46651;SDS011;32377;52.182;5.398;2022-12-18T06:30:43;52.93;;;22.47;;
46651;SDS011;32377;52.182;5.398;2022-12-18T06:33:09;57.53;;;23.97;;
46651;SDS011;32377;52.182;5.398;2022-12-18T06:35:35;53.67;;;23.10;;
46651;SDS011;32377;52.182;5.398;2022-12-18T06:38:01;53.77;;;24.73;;
46651;SDS011;32377;52.182;5.398;2022-12-18T06:40:28;54.23;;;23.23;;
46651;SDS011;32377;52.182;5.398;2022-12-18T06:42:54;53.30;;;23.23;;
46651;SDS011;32377;52.182;5.398;2022-12-18T06:45:19;58.23;;;24.27;;
46651;SDS011;32377;52.182;5.398;2022-12-18T06:47:45;52.20;;;22.97;;
46651;SDS011;32377;52.182;5.398;2022-12-18T06:50:11;49.57;;;22.53;;
46651;SDS011;32377;52.182;5.398;2022-12-18T06:52:37;54.00;;;23.47;;
46651;SDS011;32377;52.182;5.398;2022-12-18T06:55:05;48.90;;;21.73;;
46651;SDS011;32377;52.182;5.398;2022-12-18T06:57:32;53.03;;;21.93;;
46651;SDS011;32377;52.182;5.398;2022-12-18T06:59:58;53.47;;;23.67;;
46651;SDS011;32377;52.182;5.398;2022-12-18T07:02:24;50.10;;;23.13;;
46651;SDS011;32377;52.182;5.398;2022-12-18T07:04:50;51.47;;;23.57;;
46651;SDS011;32377;52.182;5.398;2022-12-18T07:07:16;52.40;;;22.20;;
46651;SDS011;32377;52.182;5.398;2022-12-18T07:09:42;47.87;;;23.20;;
46651;SDS011;32377;52.182;5.398;2022-12-18T07:12:07;50.87;;;22.10;;
46651;SDS011;32377;52.182;5.398;2022-12-18T07:14:33;53.13;;;23.03;;
46651;SDS011;32377;52.182;5.398;2022-12-18T07:16:59;48.70;;;21.57;;
46651;SDS011;32377;52.182;5.398;2022-12-18T07:19:24;49.33;;;21.67;;
46651;SDS011;32377;52.182;5.398;2022-12-18T07:21:50;44.13;;;21.30;;
46651;SDS011;32377;52.182;5.398;2022-12-18T07:24:16;48.53;;;22.63;;
46651;SDS011;32377;52.182;5.398;2022-12-18T07:26:42;46.37;;;22.07;;
46651;SDS011;32377;52.182;5.398;2022-12-18T07:29:10;49.07;;;21.63;;
46651;SDS011;32377;52.182;5.398;2022-12-18T07:31:35;48.63;;;22.30;;
46651;SDS011;32377;52.182;5.398;2022-12-18T07:34:01;43.63;;;21.73;;
46651;SDS011;32377;52.182;5.398;2022-12-18T07:36:27;49.10;;;21.83;;
46651;SDS011;32377;52.182;5.398;2022-12-18T07:38:52;46.20;;;20.60;;
46651;SDS011;32377;52.182;5.398;2022-12-18T07:41:18;49.97;;;22.40;;
46651;SDS011;32377;52.182;5.398;2022-12-18T07:43:44;47.13;;;21.10;;
46651;SDS011;32377;52.182;5.398;2022-12-18T07:46:11;47.63;;;21.37;;
46651;SDS011;32377;52.182;5.398;2022-12-18T07:48:38;45.20;;;21.37;;
46651;SDS011;32377;52.182;5.398;2022-12-18T07:51:08;40.50;;;19.23;;
46651;SDS011;32377;52.182;5.398;2022-12-18T07:53:34;48.90;;;21.37;;
46651;SDS011;32377;52.182;5.398;2022-12-18T07:56:02;42.13;;;21.70;;
46651;SDS011;32377;52.182;5.398;2022-12-18T07:58:30;48.73;;;22.13;;
46651;SDS011;32377;52.182;5.398;2022-12-18T08:01:05;44.73;;;23.37;;
46651;SDS011;32377;52.182;5.398;2022-12-18T08:03:35;54.43;;;23.37;;
46651;SDS011;32377;52.182;5.398;2022-12-18T08:06:05;46.27;;;20.70;;
46651;SDS011;32377;52.182;5.398;2022-12-18T08:08:32;42.23;;;21.30;;
46651;SDS011;32377;52.182;5.398;2022-12-18T08:10:58;39.83;;;20.63;;
46651;SDS011;32377;52.182;5.398;2022-12-18T08:13:24;43.50;;;21.77;;
46651;SDS011;32377;52.182;5.398;2022-12-18T08:16:04;44.27;;;21.27;;
46651;SDS011;32377;52.182;5.398;2022-12-18T08:18:35;41.47;;;20.63;;
46651;SDS011;32377;52.182;5.398;2022-12-18T08:21:12;47.87;;;22.23;;
46651;SDS011;32377;52.182;5.398;2022-12-18T08:23:38;51.87;;;23.43;;
46651;SDS011;32377;52.182;5.398;2022-12-18T08:26:03;43.03;;;22.07;;
46651;SDS011;32377;52.182;5.398;2022-12-18T08:28:29;41.00;;;21.80;;
46651;SDS011;32377;52.182;5.398;2022-12-18T08:30:55;45.00;;;22.10;;
46651;SDS011;32377;52.182;5.398;2022-12-18T08:33:20;40.70;;;22.27;;
46651;SDS011;32377;52.182;5.398;2022-12-18T08:35:46;41.13;;;21.80;;
46651;SDS011;32377;52.182;5.398;2022-12-18T08:38:11;42.07;;;22.10;;
46651;SDS011;32377;52.182;5.398;2022-12-18T08:40:37;45.20;;;21.97;;
46651;SDS011;32377;52.182;5.398;2022-12-18T08:43:03;42.63;;;23.00;;
46651;SDS011;32377;52.182;5.398;2022-12-18T08:45:47;45.93;;;22.87;;
46651;SDS011;32377;52.182;5.398;2022-12-18T08:48:12;39.40;;;21.73;;
46651;SDS011;32377;52.182;5.398;2022-12-18T08:50:38;46.93;;;21.90;;
46651;SDS011;32377;52.182;5.398;2022-12-18T08:53:03;43.17;;;22.27;;
46651;SDS011;32377;52.182;5.398;2022-12-18T08:55:29;41.03;;;21.50;;
46651;SDS011;32377;52.182;5.398;2022-12-18T08:57:55;42.57;;;21.67;;
46651;SDS011;32377;52.182;5.398;2022-12-18T09:00:20;38.73;;;21.17;;
46651;SDS011;32377;52.182;5.398;2022-12-18T09:02:46;39.17;;;21.57;;
46651;SDS011;32377;52.182;5.398;2022-12-18T09:05:11;54.13;;;21.63;;
46651;SDS011;32377;52.182;5.398;2022-12-18T09:07:37;44.40;;;22.53;;
46651;SDS011;32377;52.182;5.398;2022-12-18T09:10:03;47.47;;;22.23;;
46651;SDS011;32377;52.182;5.398;2022-12-18T09:12:29;43.00;;;21.50;;
46651;SDS011;32377;52.182;5.398;2022-12-18T09:14:54;42.87;;;21.53;;
46651;SDS011;32377;52.182;5.398;2022-12-18T09:17:21;39.27;;;20.10;;
46651;SDS011;32377;52.182;5.398;2022-12-18T09:19:47;40.87;;;21.00;;
46651;SDS011;32377;52.182;5.398;2022-12-18T09:22:12;37.93;;;20.53;;
46651;SDS011;32377;52.182;5.398;2022-12-18T09:24:38;40.93;;;19.10;;
46651;SDS011;32377;52.182;5.398;2022-12-18T09:27:04;38.60;;;20.10;;
46651;SDS011;32377;52.182;5.398;2022-12-18T09:29:29;40.17;;;20.83;;
46651;SDS011;32377;52.182;5.398;2022-12-18T09:31:55;42.23;;;20.53;;
46651;SDS011;32377;52.182;5.398;2022-12-18T09:34:21;40.70;;;19.90;;
46651;SDS011;32377;52.182;5.398;2022-12-18T09:36:47;38.27;;;19.53;;
46651;SDS011;32377;52.182;5.398;2022-12-18T09:39:13;43.27;;;19.63;;
46651;SDS011;32377;52.182;5.398;2022-12-18T09:41:40;34.43;;;18.13;;
46651;SDS011;32377;52.182;5.398;2022-12-18T09:46:54;36.20;;;19.00;;
46651;SDS011;32377;52.182;5.398;2022-12-18T09:49:35;38.83;;;19.80;;
46651;SDS011;32377;52.182;5.398;2022-12-18T09:52:21;36.23;;;18.57;;
46651;SDS011;32377;52.182;5.398;2022-12-18T09:54:51;34.73;;;18.57;;
46651;SDS011;32377;52.182;5.398;2022-12-18T09:57:22;36.40;;;19.30;;
46651;SDS011;32377;52.182;5.398;2022-12-18T09:59:59;39.47;;;17.50;;
46651;SDS011;32377;52.182;5.398;2022-12-18T10:02:47;34.30;;;18.03;;
46651;SDS011;32377;52.182;5.398;2022-12-18T10:05:17;37.43;;;19.47;;
46651;SDS011;32377;52.182;5.398;2022-12-18T10:10:53;34.00;;;17.42;;
46651;SDS011;32377;52.182;5.398;2022-12-18T10:13:30;32.28;;;15.85;;
46651;SDS011;32377;52.182;5.398;2022-12-18T10:16:09;29.40;;;16.57;;
46651;SDS011;32377;52.182;5.398;2022-12-18T10:21:32;30.83;;;16.03;;
46651;SDS011;32377;52.182;5.398;2022-12-18T10:26:49;30.20;;;15.17;;
46651;SDS011;32377;52.182;5.398;2022-12-18T10:29:15;32.23;;;16.80;;
46651;SDS011;32377;52.182;5.398;2022-12-18T10:31:41;29.47;;;15.37;;
46651;SDS011;32377;52.182;5.398;2022-12-18T10:34:09;25.47;;;14.17;;
46651;SDS011;32377;52.182;5.398;2022-12-18T10:36:35;27.00;;;13.93;;
46651;SDS011;32377;52.182;5.398;2022-12-18T10:39:18;29.13;;;14.30;;
46651;SDS011;32377;52.182;5.398;2022-12-18T10:41:48;29.47;;;15.27;;
46651;SDS011;32377;52.182;5.398;2022-12-18T10:44:21;28.20;;;14.87;;
46651;SDS011;32377;52.182;5.398;2022-12-18T10:46:55;34.22;;;15.48;;
46651;SDS011;32377;52.182;5.398;2022-12-18T10:49:29;32.00;;;15.60;;
46651;SDS011;32377;52.182;5.398;2022-12-18T10:54:51;30.13;;;15.07;;
46651;SDS011;32377;52.182;5.398;2022-12-18T10:59:55;26.23;;;14.53;;
46651;SDS011;32377;52.182;5.398;2022-12-18T11:02:36;25.27;;;13.97;;
46651;SDS011;32377;52.182;5.398;2022-12-18T11:05:03;28.73;;;14.47;;
46651;SDS011;32377;52.182;5.398;2022-12-18T11:07:50;27.90;;;14.43;;
46651;SDS011;32377;52.182;5.398;2022-12-18T11:10:17;29.80;;;14.20;;
46651;SDS011;32377;52.182;5.398;2022-12-18T11:12:45;26.53;;;13.77;;
46651;SDS011;32377;52.182;5.398;2022-12-18T11:15:26;25.93;;;14.03;;
46651;SDS011;32377;52.182;5.398;2022-12-18T11:17:54;25.77;;;13.37;;
46651;SDS011;32377;52.182;5.398;2022-12-18T11:20:21;27.20;;;13.97;;
46651;SDS011;32377;52.182;5.398;2022-12-18T11:23:10;27.53;;;13.17;;
46651;SDS011;32377;52.182;5.398;2022-12-18T11:25:38;27.57;;;13.03;;
46651;SDS011;32377;52.182;5.398;2022-12-18T11:33:44;29.50;;;13.90;;
46651;SDS011;32377;52.182;5.398;2022-12-18T11:36:32;24.93;;;13.17;;
46651;SDS011;32377;52.182;5.398;2022-12-18T11:39:05;27.37;;;13.47;;
46651;SDS011;32377;52.182;5.398;2022-12-18T11:41:38;27.23;;;13.80;;
46651;SDS011;32377;52.182;5.398;2022-12-18T11:44:33;24.42;;;12.35;;
46651;SDS011;32377;52.182;5.398;2022-12-18T11:47:10;24.75;;;13.48;;
46651;SDS011;32377;52.182;5.398;2022-12-18T11:49:45;28.43;;;13.63;;
46651;SDS011;32377;52.182;5.398;2022-12-18T11:54:51;30.10;;;13.77;;
46651;SDS011;32377;52.182;5.398;2022-12-18T11:57:33;27.97;;;12.53;;
46651;SDS011;32377;52.182;5.398;2022-12-18T12:00:15;22.57;;;12.73;;
46651;SDS011;32377;52.182;5.398;2022-12-18T12:02:58;22.83;;;12.53;;
46651;SDS011;32377;52.182;5.398;2022-12-18T12:08:46;28.67;;;13.60;;
46651;SDS011;32377;52.182;5.398;2022-12-18T12:11:23;23.73;;;13.63;;
46651;SDS011;32377;52.182;5.398;2022-12-18T12:19:53;31.00;;;14.50;;
46651;SDS011;32377;52.182;5.398;2022-12-18T12:23:00;30.47;;;14.23;;
46651;SDS011;32377;52.182;5.398;2022-12-18T12:25:40;26.43;;;13.93;;
46651;SDS011;32377;52.182;5.398;2022-12-18T12:31:05;28.27;;;14.00;;
46651;SDS011;32377;52.182;5.398;2022-12-18T12:36:52;26.53;;;13.53;;
46651;SDS011;32377;52.182;5.398;2022-12-18T12:39:27;28.83;;;13.70;;
46651;SDS011;32377;52.182;5.398;2022-12-18T12:41:56;27.73;;;13.00;;
46651;SDS011;32377;52.182;5.398;2022-12-18T12:44:45;25.67;;;13.00;;
46651;SDS011;32377;52.182;5.398;2022-12-18T12:47:27;26.20;;;12.77;;
46651;SDS011;32377;52.182;5.398;2022-12-18T12:49:58;31.00;;;14.43;;
46651;SDS011;32377;52.182;5.398;2022-12-18T12:52:33;30.40;;;14.43;;
46651;SDS011;32377;52.182;5.398;2022-12-18T12:55:12;33.77;;;16.07;;
46651;SDS011;32377;52.182;5.398;2022-12-18T12:58:25;28.63;;;14.77;;
46651;SDS011;32377;52.182;5.398;2022-12-18T13:00:47;30.90;;;14.33;;
46651;SDS011;32377;52.182;5.398;2022-12-18T13:03:26;28.23;;;15.07;;
46651;SDS011;32377;52.182;5.398;2022-12-18T13:06:16;26.47;;;14.43;;
46651;SDS011;32377;52.182;5.398;2022-12-18T13:08:54;26.03;;;12.90;;
46651;SDS011;32377;52.182;5.398;2022-12-18T13:11:29;30.33;;;14.47;;
46651;SDS011;32377;52.182;5.398;2022-12-18T13:19:48;26.20;;;13.80;;
46651;SDS011;32377;52.182;5.398;2022-12-18T13:22:30;23.93;;;13.73;;
46651;SDS011;32377;52.182;5.398;2022-12-18T13:28:11;28.77;;;14.60;;
46651;SDS011;32377;52.182;5.398;2022-12-18T13:30:42;32.03;;;15.27;;
46651;SDS011;32377;52.182;5.398;2022-12-18T13:36:08;25.13;;;13.83;;
46651;SDS011;32377;52.182;5.398;2022-12-18T13:38:35;26.27;;;13.50;;
46651;SDS011;32377;52.182;5.398;2022-12-18T13:43:46;30.27;;;14.83;;
46651;SDS011;32377;52.182;5.398;2022-12-18T13:46:21;28.10;;;14.97;;
46651;SDS011;32377;52.182;5.398;2022-12-18T13:51:39;29.07;;;14.97;;
46651;SDS011;32377;52.182;5.398;2022-12-18T13:54:30;28.97;;;14.77;;
46651;SDS011;32377;52.182;5.398;2022-12-18T13:56:58;29.57;;;14.70;;
46651;SDS011;32377;52.182;5.398;2022-12-18T13:59:24;26.63;;;14.27;;
46651;SDS011;32377;52.182;5.398;2022-12-18T14:01:52;27.40;;;13.90;;
46651;SDS011;32377;52.182;5.398;2022-12-18T14:06:52;28.73;;;15.07;;
46651;SDS011;32377;52.182;5.398;2022-12-18T14:09:42;28.20;;;14.40;;
46651;SDS011;32377;52.182;5.398;2022-12-18T14:12:18;26.57;;;14.77;;
46651;SDS011;32377;52.182;5.398;2022-12-18T14:15:06;33.22;;;15.30;;
46651;SDS011;32377;52.182;5.398;2022-12-18T14:17:40;31.52;;;15.55;;
46651;SDS011;32377;52.182;5.398;2022-12-18T14:20:12;32.37;;;15.73;;
46651;SDS011;32377;52.182;5.398;2022-12-18T14:22:42;27.80;;;14.67;;
46651;SDS011;32377;52.182;5.398;2022-12-18T14:27:38;28.30;;;14.80;;
46651;SDS011;32377;52.182;5.398;2022-12-18T14:30:33;31.30;;;15.53;;
46651;SDS011;32377;52.182;5.398;2022-12-18T14:33:03;27.13;;;15.07;;
46651;SDS011;32377;52.182;5.398;2022-12-18T14:35:32;32.93;;;15.53;;
46651;SDS011;32377;52.182;5.398;2022-12-18T14:38:09;28.67;;;14.57;;
46651;SDS011;32377;52.182;5.398;2022-12-18T14:40:41;27.27;;;14.13;;
46651;SDS011;32377;52.182;5.398;2022-12-18T14:43:09;27.17;;;14.80;;
46651;SDS011;32377;52.182;5.398;2022-12-18T14:45:36;31.77;;;15.40;;
46651;SDS011;32377;52.182;5.398;2022-12-18T14:48:07;28.97;;;14.87;;
46651;SDS011;32377;52.182;5.398;2022-12-18T14:50:34;29.77;;;15.67;;
46651;SDS011;32377;52.182;5.398;2022-12-18T14:53:00;28.20;;;14.23;;
46651;SDS011;32377;52.182;5.398;2022-12-18T14:55:26;30.27;;;15.90;;
46651;SDS011;32377;52.182;5.398;2022-12-18T14:57:52;30.47;;;15.13;;
46651;SDS011;32377;52.182;5.398;2022-12-18T15:00:21;33.27;;;15.87;;
46651;SDS011;32377;52.182;5.398;2022-12-18T15:02:49;33.27;;;16.30;;
46651;SDS011;32377;52.182;5.398;2022-12-18T15:05:24;44.23;;;18.87;;
46651;SDS011;32377;52.182;5.398;2022-12-18T15:07:52;38.93;;;18.80;;
46651;SDS011;32377;52.182;5.398;2022-12-18T15:10:22;36.07;;;16.23;;
46651;SDS011;32377;52.182;5.398;2022-12-18T15:18:32;29.63;;;15.90;;
46651;SDS011;32377;52.182;5.398;2022-12-18T15:21:07;34.60;;;15.63;;
46651;SDS011;32377;52.182;5.398;2022-12-18T15:23:47;36.00;;;17.10;;
46651;SDS011;32377;52.182;5.398;2022-12-18T15:26:15;32.05;;;17.15;;
46651;SDS011;32377;52.182;5.398;2022-12-18T15:28:44;31.13;;;17.13;;
46651;SDS011;32377;52.182;5.398;2022-12-18T15:33:39;32.43;;;16.87;;
46651;SDS011;32377;52.182;5.398;2022-12-18T15:36:14;41.17;;;16.33;;
46651;SDS011;32377;52.182;5.398;2022-12-18T15:38:41;30.05;;;15.63;;
46651;SDS011;32377;52.182;5.398;2022-12-18T15:41:13;37.10;;;16.07;;
46651;SDS011;32377;52.182;5.398;2022-12-18T15:43:40;30.00;;;15.47;;
46651;SDS011;32377;52.182;5.398;2022-12-18T15:46:11;31.10;;;16.20;;
46651;SDS011;32377;52.182;5.398;2022-12-18T15:48:39;32.33;;;15.83;;
46651;SDS011;32377;52.182;5.398;2022-12-18T15:53:45;35.93;;;17.20;;
46651;SDS011;32377;52.182;5.398;2022-12-18T15:56:16;33.80;;;16.20;;
46651;SDS011;32377;52.182;5.398;2022-12-18T15:59:00;33.63;;;15.87;;
46651;SDS011;32377;52.182;5.398;2022-12-18T16:01:28;35.70;;;17.17;;
46651;SDS011;32377;52.182;5.398;2022-12-18T16:03:56;33.13;;;16.73;;
46651;SDS011;32377;52.182;5.398;2022-12-18T16:06:22;36.20;;;17.57;;
46651;SDS011;32377;52.182;5.398;2022-12-18T16:08:48;31.63;;;17.17;;
46651;SDS011;32377;52.182;5.398;2022-12-18T16:11:24;35.93;;;17.87;;
46651;SDS011;32377;52.182;5.398;2022-12-18T16:14:21;40.97;;;17.80;;